createdAt,value
2018-09-05T00:01:33.095Z,20.01
2018-09-05T00:04:02.076Z,19.99
2018-09-05T00:06:31.000Z,20.02
2018-09-05T00:08:59.951Z,19.91
2018-09-05T00:11:28.910Z,19.96
2018-09-05T00:13:57.855Z,19.94
2018-09-05T00:16:26.819Z,19.93
2018-09-05T00:18:55.719Z,19.92
2018-09-05T00:21:24.629Z,19.84
2018-09-05T00:23:53.626Z,19.80
2018-09-05T00:26:22.637Z,19.81
2018-09-05T00:28:51.652Z,19.81
2018-09-05T00:31:20.713Z,19.81
2018-09-05T00:33:49.703Z,19.83
2018-09-05T00:36:18.703Z,19.77
2018-09-05T00:38:47.637Z,19.70
2018-09-05T00:41:16.585Z,19.65
2018-09-05T00:43:45.491Z,19.59
2018-09-05T00:46:14.440Z,19.59
2018-09-05T00:48:43.408Z,19.66
2018-09-05T00:51:12.400Z,19.58
2018-09-05T00:53:45.103Z,19.57
2018-09-05T00:56:14.081Z,19.62
2018-09-05T00:58:50.263Z,19.60
2018-09-05T01:01:20.285Z,19.60
2018-09-05T01:03:49.283Z,19.55
2018-09-05T01:06:28.333Z,19.60
2018-09-05T01:08:59.723Z,19.59
2018-09-05T01:11:34.734Z,19.60
2018-09-05T01:14:03.725Z,19.63
2018-09-05T01:16:38.063Z,19.54
2018-09-05T01:19:09.243Z,19.54
2018-09-05T01:21:38.243Z,19.61
2018-09-05T01:24:14.691Z,19.65
2018-09-05T01:26:43.848Z,19.62
2018-09-05T01:29:12.867Z,19.60
2018-09-05T01:31:50.887Z,19.57
2018-09-05T01:34:19.806Z,19.62
2018-09-05T01:36:49.875Z,19.63
2018-09-05T01:39:25.159Z,19.56
2018-09-05T01:41:54.011Z,19.64
2018-09-05T01:44:23.106Z,19.62
2018-09-05T01:47:00.143Z,19.63
2018-09-05T01:49:29.231Z,19.61
2018-09-05T01:52:05.541Z,19.73
2018-09-05T01:54:35.558Z,19.74
2018-09-05T01:57:04.606Z,19.77
2018-09-05T01:59:53.389Z,19.76
2018-09-05T02:05:07.371Z,19.75
2018-09-05T02:07:43.320Z,19.70
2018-09-05T02:10:15.909Z,19.73
2018-09-05T02:12:48.542Z,19.74
2018-09-05T02:15:17.501Z,19.71
2018-09-05T02:17:48.265Z,19.67
2018-09-05T02:20:22.918Z,19.76
2018-09-05T02:22:52.035Z,19.77
2018-09-05T02:25:20.986Z,19.72
2018-09-05T02:27:59.519Z,19.75
2018-09-05T02:31:01.209Z,19.77
2018-09-05T02:33:31.167Z,19.68
2018-09-05T02:36:00.079Z,19.66
2018-09-05T02:38:30.229Z,19.68
2018-09-05T02:41:05.363Z,19.69
2018-09-05T02:43:42.927Z,19.65
2018-09-05T02:46:13.103Z,19.55
2018-09-05T02:48:52.303Z,19.53
2018-09-05T02:51:21.375Z,19.43
2018-09-05T02:53:54.291Z,19.40
2018-09-05T02:56:27.434Z,19.39
2018-09-05T02:58:56.461Z,19.32
2018-09-05T03:01:36.867Z,19.28
2018-09-05T03:04:13.966Z,19.32
2018-09-05T03:06:42.855Z,19.34
2018-09-05T03:09:11.876Z,19.34
2018-09-05T03:11:48.333Z,19.41
2018-09-05T03:14:17.291Z,19.28
2018-09-05T03:16:46.191Z,19.37
2018-09-05T03:19:22.344Z,19.37
2018-09-05T03:21:52.340Z,19.28
2018-09-05T03:24:21.265Z,19.37
2018-09-05T03:26:51.855Z,19.37
2018-09-05T03:29:25.113Z,19.36
2018-09-05T03:31:54.280Z,19.31
2018-09-05T03:34:23.159Z,19.41
